sensor_id;sensor_type;location;lat;lon;timestamp;P1;durP1;ratioP1;P2;durP2;ratioP2
55346;SDS011;41218;55.700;38.270;2023-04-01T00:02:41;12.55;;;5.45;;
55346;SDS011;41218;55.700;38.270;2023-04-01T00:07:42;14.77;;;6.17;;
55346;SDS011;41218;55.700;38.270;2023-04-01T00:12:43;15.73;;;5.45;;
55346;SDS011;41218;55.700;38.270;2023-04-01T00:17:43;12.17;;;5.17;;
55346;SDS011;41218;55.700;38.270;2023-04-01T00:22:44;12.88;;;5.53;;
55346;SDS011;41218;55.700;38.270;2023-04-01T00:27:45;16.17;;;5.93;;
55346;SDS011;41218;55.700;38.270;2023-04-01T00:32:45;13.43;;;5.53;;
55346;SDS011;41218;55.700;38.270;2023-04-01T00:37:46;15.77;;;5.43;;
55346;SDS011;41218;55.700;38.270;2023-04-01T00:42:47;16.33;;;5.78;;
55346;SDS011;41218;55.700;38.270;2023-04-01T00:47:47;14.87;;;5.73;;
55346;SDS011;41218;55.700;38.270;2023-04-01T00:52:48;13.90;;;5.97;;
55346;SDS011;41218;55.700;38.270;2023-04-01T00:57:49;15.45;;;6.38;;
55346;SDS011;41218;55.700;38.270;2023-04-01T01:02:53;14.02;;;5.70;;
55346;SDS011;41218;55.700;38.270;2023-04-01T01:08:15;15.10;;;5.30;;
55346;SDS011;41218;55.700;38.270;2023-04-01T01:13:25;13.27;;;5.35;;
55346;SDS011;41218;55.700;38.270;2023-04-01T01:18:39;12.18;;;5.03;;
55346;SDS011;41218;55.700;38.270;2023-04-01T01:39:21;15.00;;;5.93;;
55346;SDS011;41218;55.700;38.270;2023-04-01T01:44:28;14.57;;;5.85;;
55346;SDS011;41218;55.700;38.270;2023-04-01T01:49:31;14.57;;;5.65;;
55346;SDS011;41218;55.700;38.270;2023-04-01T01:54:32;15.45;;;5.50;;
55346;SDS011;41218;55.700;38.270;2023-04-01T01:59:40;14.70;;;5.73;;
55346;SDS011;41218;55.700;38.270;2023-04-01T02:04:44;16.47;;;5.90;;
55346;SDS011;41218;55.700;38.270;2023-04-01T02:09:46;15.88;;;6.35;;
55346;SDS011;41218;55.700;38.270;2023-04-01T02:19:56;13.20;;;5.63;;
55346;SDS011;41218;55.700;38.270;2023-04-01T02:25:02;15.30;;;6.22;;
55346;SDS011;41218;55.700;38.270;2023-04-01T02:30:06;14.65;;;6.00;;
55346;SDS011;41218;55.700;38.270;2023-04-01T02:35:09;14.80;;;5.93;;
55346;SDS011;41218;55.700;38.270;2023-04-01T02:40:12;14.73;;;6.18;;
55346;SDS011;41218;55.700;38.270;2023-04-01T02:45:14;14.60;;;6.03;;
55346;SDS011;41218;55.700;38.270;2023-04-01T02:50:15;13.82;;;6.05;;
55346;SDS011;41218;55.700;38.270;2023-04-01T02:55:15;13.80;;;5.50;;
55346;SDS011;41218;55.700;38.270;2023-04-01T03:00:16;18.13;;;6.73;;
55346;SDS011;41218;55.700;38.270;2023-04-01T03:05:17;13.85;;;6.03;;
55346;SDS011;41218;55.700;38.270;2023-04-01T03:10:18;13.30;;;6.28;;
55346;SDS011;41218;55.700;38.270;2023-04-01T03:15:18;16.33;;;6.13;;
55346;SDS011;41218;55.700;38.270;2023-04-01T03:20:19;15.73;;;5.80;;
55346;SDS011;41218;55.700;38.270;2023-04-01T03:25:20;13.60;;;5.60;;
55346;SDS011;41218;55.700;38.270;2023-04-01T03:30:20;13.90;;;6.20;;
55346;SDS011;41218;55.700;38.270;2023-04-01T03:35:21;12.47;;;5.87;;
55346;SDS011;41218;55.700;38.270;2023-04-01T03:40:22;13.57;;;5.37;;
55346;SDS011;41218;55.700;38.270;2023-04-01T03:50:23;15.73;;;5.80;;
55346;SDS011;41218;55.700;38.270;2023-04-01T03:55:24;13.47;;;5.47;;
55346;SDS011;41218;55.700;38.270;2023-04-01T04:00:24;12.38;;;5.95;;
55346;SDS011;41218;55.700;38.270;2023-04-01T04:05:25;18.03;;;6.67;;
55346;SDS011;41218;55.700;38.270;2023-04-01T04:10:26;13.20;;;5.53;;
55346;SDS011;41218;55.700;38.270;2023-04-01T04:15:26;13.50;;;5.40;;
55346;SDS011;41218;55.700;38.270;2023-04-01T04:20:27;14.37;;;5.73;;
55346;SDS011;41218;55.700;38.270;2023-04-01T04:25:27;17.77;;;6.63;;
55346;SDS011;41218;55.700;38.270;2023-04-01T04:30:28;14.20;;;5.57;;
55346;SDS011;41218;55.700;38.270;2023-04-01T04:35:28;16.53;;;6.43;;
55346;SDS011;41218;55.700;38.270;2023-04-01T04:40:29;14.50;;;6.20;;
55346;SDS011;41218;55.700;38.270;2023-04-01T04:45:30;17.67;;;7.43;;
55346;SDS011;41218;55.700;38.270;2023-04-01T04:50:30;16.40;;;6.93;;
55346;SDS011;41218;55.700;38.270;2023-04-01T04:55:31;19.90;;;7.00;;
55346;SDS011;41218;55.700;38.270;2023-04-01T05:00:32;19.27;;;6.63;;
55346;SDS011;41218;55.700;38.270;2023-04-01T05:05:32;17.03;;;6.87;;
55346;SDS011;41218;55.700;38.270;2023-04-01T05:10:33;17.93;;;6.53;;
55346;SDS011;41218;55.700;38.270;2023-04-01T05:15:34;19.93;;;7.17;;
55346;SDS011;41218;55.700;38.270;2023-04-01T05:20:35;15.65;;;6.47;;
55346;SDS011;41218;55.700;38.270;2023-04-01T05:25:37;14.97;;;6.47;;
55346;SDS011;41218;55.700;38.270;2023-04-01T05:30:41;17.27;;;6.72;;
55346;SDS011;41218;55.700;38.270;2023-04-01T05:35:43;15.82;;;6.63;;
55346;SDS011;41218;55.700;38.270;2023-04-01T05:40:43;18.00;;;6.27;;
55346;SDS011;41218;55.700;38.270;2023-04-01T05:45:44;17.50;;;6.90;;
55346;SDS011;41218;55.700;38.270;2023-04-01T05:50:45;16.57;;;5.80;;
55346;SDS011;41218;55.700;38.270;2023-04-01T05:55:45;19.43;;;7.27;;
55346;SDS011;41218;55.700;38.270;2023-04-01T06:00:46;19.73;;;6.93;;
55346;SDS011;41218;55.700;38.270;2023-04-01T06:05:47;21.88;;;7.10;;
55346;SDS011;41218;55.700;38.270;2023-04-01T06:16:19;17.15;;;7.22;;
55346;SDS011;41218;55.700;38.270;2023-04-01T06:22:13;16.45;;;6.72;;
55346;SDS011;41218;55.700;38.270;2023-04-01T06:27:01;21.80;;;7.23;;
55346;SDS011;41218;55.700;38.270;2023-04-01T06:53:44;18.08;;;7.30;;
55346;SDS011;41218;55.700;38.270;2023-04-01T07:03:57;19.00;;;7.53;;
55346;SDS011;41218;55.700;38.270;2023-04-01T07:09:04;18.02;;;8.25;;
55346;SDS011;41218;55.700;38.270;2023-04-01T07:14:29;20.80;;;7.25;;
55346;SDS011;41218;55.700;38.270;2023-04-01T07:24:39;16.73;;;7.47;;
55346;SDS011;41218;55.700;38.270;2023-04-01T07:29:43;16.20;;;7.40;;
55346;SDS011;41218;55.700;38.270;2023-04-01T07:50:32;15.93;;;6.88;;
55346;SDS011;41218;55.700;38.270;2023-04-01T07:55:41;13.50;;;6.25;;
55346;SDS011;41218;55.700;38.270;2023-04-01T08:12:18;16.52;;;7.28;;
55346;SDS011;41218;55.700;38.270;2023-04-01T08:22:09;19.63;;;8.75;;
55346;SDS011;41218;55.700;38.270;2023-04-01T08:27:21;19.77;;;7.88;;
55346;SDS011;41218;55.700;38.270;2023-04-01T08:32:31;22.75;;;8.55;;
55346;SDS011;41218;55.700;38.270;2023-04-01T08:37:37;16.42;;;7.95;;
55346;SDS011;41218;55.700;38.270;2023-04-01T08:58:44;24.58;;;10.13;;
55346;SDS011;41218;55.700;38.270;2023-04-01T09:09:21;22.50;;;10.15;;
55346;SDS011;41218;55.700;38.270;2023-04-01T09:15:02;24.75;;;10.27;;
55346;SDS011;41218;55.700;38.270;2023-04-01T09:42:02;17.95;;;8.68;;
55346;SDS011;41218;55.700;38.270;2023-04-01T11:17:35;18.88;;;7.45;;
55346;SDS011;41218;55.700;38.270;2023-04-01T11:23:04;19.67;;;7.40;;
55346;SDS011;41218;55.700;38.270;2023-04-01T11:28:18;17.55;;;7.63;;
55346;SDS011;41218;55.700;38.270;2023-04-01T11:33:38;14.45;;;5.68;;
55346;SDS011;41218;55.700;38.270;2023-04-01T11:38:55;14.45;;;6.32;;
55346;SDS011;41218;55.700;38.270;2023-04-01T11:44:09;15.35;;;6.30;;
55346;SDS011;41218;55.700;38.270;2023-04-01T11:54:28;13.32;;;6.38;;
55346;SDS011;41218;55.700;38.270;2023-04-01T12:16:12;13.02;;;5.72;;
55346;SDS011;41218;55.700;38.270;2023-04-01T12:37:21;10.73;;;4.28;;
55346;SDS011;41218;55.700;38.270;2023-04-01T13:14:35;8.93;;;4.65;;
55346;SDS011;41218;55.700;38.270;2023-04-01T13:31:00;8.70;;;4.10;;
55346;SDS011;41218;55.700;38.270;2023-04-01T14:09:37;9.07;;;4.05;;
55346;SDS011;41218;55.700;38.270;2023-04-01T14:35:38;11.35;;;4.63;;
55346;SDS011;41218;55.700;38.270;2023-04-01T14:51:41;11.38;;;5.90;;
55346;SDS011;41218;55.700;38.270;2023-04-01T14:56:42;12.90;;;5.97;;
55346;SDS011;41218;55.700;38.270;2023-04-01T15:01:50;11.40;;;5.65;;
55346;SDS011;41218;55.700;38.270;2023-04-01T15:07:03;9.63;;;4.53;;
55346;SDS011;41218;55.700;38.270;2023-04-01T15:43:59;6.43;;;3.58;;
55346;SDS011;41218;55.700;38.270;2023-04-01T15:59:36;12.43;;;6.45;;
55346;SDS011;41218;55.700;38.270;2023-04-01T16:32:08;21.65;;;11.43;;
55346;SDS011;41218;55.700;38.270;2023-04-01T16:37:34;20.92;;;10.95;;
55346;SDS011;41218;55.700;38.270;2023-04-01T16:42:40;22.92;;;11.85;;
55346;SDS011;41218;55.700;38.270;2023-04-01T16:47:56;25.75;;;13.20;;
55346;SDS011;41218;55.700;38.270;2023-04-01T16:53:17;20.27;;;10.35;;
55346;SDS011;41218;55.700;38.270;2023-04-01T16:58:26;16.58;;;8.85;;
55346;SDS011;41218;55.700;38.270;2023-04-01T17:03:36;16.77;;;8.50;;
55346;SDS011;41218;55.700;38.270;2023-04-01T17:35:17;20.33;;;9.25;;
55346;SDS011;41218;55.700;38.270;2023-04-01T18:17:50;22.67;;;10.45;;
55346;SDS011;41218;55.700;38.270;2023-04-01T18:23:04;17.13;;;8.52;;
55346;SDS011;41218;55.700;38.270;2023-04-01T18:33:29;18.85;;;9.38;;
55346;SDS011;41218;55.700;38.270;2023-04-01T18:38:38;19.77;;;8.07;;
55346;SDS011;41218;55.700;38.270;2023-04-01T18:49:06;19.73;;;8.60;;
55346;SDS011;41218;55.700;38.270;2023-04-01T18:59:45;22.42;;;10.63;;
55346;SDS011;41218;55.700;38.270;2023-04-01T19:05:04;19.98;;;9.48;;
55346;SDS011;41218;55.700;38.270;2023-04-01T19:15:34;24.58;;;12.07;;
55346;SDS011;41218;55.700;38.270;2023-04-01T19:20:46;21.92;;;11.68;;
55346;SDS011;41218;55.700;38.270;2023-04-01T19:25:58;23.17;;;10.40;;
55346;SDS011;41218;55.700;38.270;2023-04-01T19:41:43;26.47;;;10.40;;
55346;SDS011;41218;55.700;38.270;2023-04-01T19:46:53;23.23;;;9.95;;
55346;SDS011;41218;55.700;38.270;2023-04-01T19:52:16;21.85;;;9.82;;
55346;SDS011;41218;55.700;38.270;2023-04-01T20:03:13;21.27;;;10.50;;
55346;SDS011;41218;55.700;38.270;2023-04-01T20:08:40;20.48;;;9.77;;
55346;SDS011;41218;55.700;38.270;2023-04-01T20:19:07;23.10;;;10.48;;
55346;SDS011;41218;55.700;38.270;2023-04-01T20:34:41;23.23;;;10.57;;
55346;SDS011;41218;55.700;38.270;2023-04-01T21:44:12;25.65;;;10.25;;
55346;SDS011;41218;55.700;38.270;2023-04-01T22:05:24;21.58;;;10.23;;
55346;SDS011;41218;55.700;38.270;2023-04-01T22:10:44;24.77;;;10.20;;
55346;SDS011;41218;55.700;38.270;2023-04-01T22:21:24;25.50;;;10.73;;
55346;SDS011;41218;55.700;38.270;2023-04-01T22:32:41;26.00;;;10.68;;
55346;SDS011;41218;55.700;38.270;2023-04-01T22:47:56;25.95;;;10.90;;
55346;SDS011;41218;55.700;38.270;2023-04-01T22:53:19;27.77;;;10.75;;
55346;SDS011;41218;55.700;38.270;2023-04-01T23:04:09;26.67;;;10.63;;
55346;SDS011;41218;55.700;38.270;2023-04-01T23:09:23;26.60;;;10.95;;
55346;SDS011;41218;55.700;38.270;2023-04-01T23:14:32;30.52;;;11.75;;
55346;SDS011;41218;55.700;38.270;2023-04-01T23:25:13;29.73;;;11.80;;
55346;SDS011;41218;55.700;38.270;2023-04-01T23:35:59;27.83;;;10.97;;
55346;SDS011;41218;55.700;38.270;2023-04-01T23:41:05;30.45;;;11.40;;
55346;SDS011;41218;55.700;38.270;2023-04-01T23:46:06;28.77;;;10.60;;
55346;SDS011;41218;55.700;38.270;2023-04-01T23:51:25;26.70;;;11.23;;
55346;SDS011;41218;55.700;38.270;2023-04-01T23:56:38;25.25;;;10.52;;
